LKHV weather

Hořovice Airport
Hořovice, Central Bohemian Region, Czechia

Public forecast

Using degrees Celsius for public forecast. Weather courtesy of forecast.io.

METAR (pilot weather report)

Closest report is Václav Havel Airport Prague, 20.7 nm (38.4 km) NE. Retrieved 2019/09/19 03:30 UTC (0 seconds ago):

LKPR 190330Z 26005KT CAVOK 04/02 Q1025 NOSIG

TAF (pilot weather forecast)

Forecast is more than 12 hours old.

Closest forecast is Václav Havel Airport Prague, 20.7 nm (38.4 km) NE. Retrieved 2019/09/18 00:09 UTC (1 day ago):

TAF LKPR 182300Z 1900/2006 26006KT CAVOK BECMG 1906/1908 33008KT TEMPO 1910/1916 9999 SCT040